Lady Elliot Island, Australia
Current Conditions -  °F | °C
As of 1:00 AM on Sunday 21 Dec 2014 (Local Time) from YBUD Reporting Station
Broken Clouds Broken Clouds  
Wind Chill: 75°   Ceiling: 2500
Heat Index: 75°   Visibility: 6mi
Dew Point: 68°   Wind: 6mph
Humidity: 78%   Direction: 90°E
Pressure: 29.94"   Gusts: NA
Location:  24.1°S, 152.7°E
Report Text: YBUD 201500Z AUTO 09005KT 9999 // BKN025 BKN041 24/20 Q1014
Loading
Personal Weather Stations






























Interactive Weather Map New forecast layout! Learn more

10-Day Weather Forecast

Advertisements
Track Severe Weather on mobile